TimeEST,TemperatureF,Dew PointF,Humidity,Sea Level PressureIn,VisibilityMPH,Wind Direction,Wind SpeedMPH,Gust SpeedMPH,PrecipitationIn,Events,Conditions,WindDirDegrees,DateUTC
12:15 AM,13.8,5.9,71,30.02,10.0,NE,13.8,18.4,N/A,,Overcast,50,2014-01-21 05:15:00
12:34 AM,13.5,4.8,68,30.02,10.0,NE,13.8,19.6,N/A,,Overcast,40,2014-01-21 05:34:00
12:55 AM,13.1,4.3,68,30.02,10.0,NE,12.7,19.6,N/A,,Overcast,40,2014-01-21 05:55:00
1:15 AM,13.1,3.4,65,30.03,10.0,NE,15.0,19.6,N/A,,Overcast,40,2014-01-21 06:15:00
1:35 AM,12.9,3.9,67,30.03,4.0,NNE,12.7,17.3,N/A,Snow,Light Snow,30,2014-01-21 06:35:00
1:55 AM,12.2,4.8,72,30.03,4.0,NNE,12.7,18.4,N/A,Snow,Light Snow,30,2014-01-21 06:55:00
2:15 AM,11.8,5.0,74,30.03,3.0,NNE,15.0,18.4,N/A,Snow,Light Snow,30,2014-01-21 07:15:00
2:35 AM,11.3,2.5,68,30.04,7.0,NE,16.1,24.2,N/A,,Overcast,50,2014-01-21 07:35:00
2:55 AM,11.1,1.8,66,30.06,7.0,NE,13.8,-,N/A,Snow,Light Snow,40,2014-01-21 07:55:00
3:14 AM,10.4,0.9,65,30.07,4.0,NE,13.8,24.2,N/A,Snow,Light Snow,50,2014-01-21 08:14:00
3:35 AM,9.9,0.3,65,30.08,7.0,NE,11.5,16.1,N/A,,Overcast,50,2014-01-21 08:35:00
3:55 AM,9.5,0.5,67,30.08,7.0,NE,12.7,17.3,N/A,,Overcast,40,2014-01-21 08:55:00
4:14 AM,9.3,-0.9,63,30.09,10.0,NE,13.8,21.9,N/A,,Overcast,40,2014-01-21 09:14:00
4:35 AM,8.8,-0.9,65,30.10,10.0,NE,10.4,-,N/A,,Overcast,40,2014-01-21 09:35:00
4:55 AM,8.6,-1.8,63,30.10,10.0,NNE,10.4,-,N/A,,Overcast,30,2014-01-21 09:55:00
5:14 AM,8.4,-2.2,62,30.11,10.0,NE,8.1,-,N/A,,Overcast,40,2014-01-21 10:14:00
5:35 AM,8.4,-4.2,57,30.11,10.0,NNE,8.1,-,N/A,,Overcast,30,2014-01-21 10:35:00
5:55 AM,8.1,-5.8,53,30.12,10.0,NNE,10.4,18.4,N/A,,Mostly Cloudy,30,2014-01-21 10:55:00
6:15 AM,7.7,-5.8,54,30.12,10.0,NE,8.1,-,N/A,,Scattered Clouds,40,2014-01-21 11:15:00
6:35 AM,6.8,-6.0,56,30.13,10.0,NNE,9.2,18.4,N/A,,Clear,30,2014-01-21 11:35:00
6:55 AM,5.5,-6.3,58,30.14,10.0,NNE,6.9,-,N/A,,Clear,20,2014-01-21 11:55:00
7:15 AM,5.0,-6.7,59,30.15,10.0,NNE,3.5,-,N/A,,Clear,20,2014-01-21 12:15:00
7:35 AM,5.0,-6.7,59,30.15,10.0,NNE,5.8,-,N/A,,Clear,30,2014-01-21 12:35:00
7:54 AM,4.3,-6.9,60,30.17,10.0,NNE,5.8,-,N/A,,Clear,20,2014-01-21 12:54:00
8:15 AM,3.2,-7.4,61,30.17,10.0,NNE,6.9,-,N/A,,Clear,20,2014-01-21 13:15:00
8:35 AM,3.2,-7.6,61,30.18,10.0,NNE,6.9,-,N/A,,Clear,20,2014-01-21 13:35:00
8:54 AM,3.7,-7.6,59,30.18,10.0,NNE,5.8,-,N/A,,Clear,20,2014-01-21 13:54:00
9:15 AM,4.5,-6.9,59,30.18,10.0,NNE,4.6,-,N/A,,Clear,20,2014-01-21 14:15:00
9:35 AM,5.2,-6.7,58,30.19,10.0,NNE,8.1,-,N/A,,Clear,20,2014-01-21 14:35:00
9:54 AM,5.9,-6.3,57,30.20,10.0,NNE,8.1,-,N/A,,Clear,30,2014-01-21 14:54:00
10:15 AM,6.6,-6.0,56,30.20,10.0,NNE,9.2,-,N/A,,Clear,20,2014-01-21 15:15:00
10:35 AM,7.0,-6.2,55,30.21,10.0,NNE,12.7,18.4,N/A,,Clear,20,2014-01-21 15:35:00
10:54 AM,7.7,-6.2,53,30.22,10.0,NNE,12.7,17.3,N/A,,Clear,20,2014-01-21 15:54:00
11:15 AM,8.6,-6.2,51,30.21,10.0,NNE,6.9,-,N/A,,Clear,20,2014-01-21 16:15:00
11:35 AM,9.1,-6.0,50,30.21,10.0,NE,9.2,-,N/A,,Clear,40,2014-01-21 16:35:00
11:55 AM,9.5,-5.6,50,30.20,10.0,North,12.7,16.1,N/A,,Clear,10,2014-01-21 16:55:00
12:15 PM,10.2,-5.6,49,30.19,10.0,NNE,10.4,16.1,N/A,,Clear,30,2014-01-21 17:15:00
12:35 PM,10.6,-5.3,49,30.19,10.0,NNE,8.1,-,N/A,,Clear,30,2014-01-21 17:35:00
12:55 PM,11.3,-5.6,47,30.19,10.0,NE,11.5,-,N/A,,Clear,40,2014-01-21 17:55:00
1:15 PM,11.5,-6.0,46,30.18,10.0,NNE,13.8,-,N/A,,Clear,30,2014-01-21 18:15:00
1:34 PM,11.7,-6.0,45,30.17,10.0,NNE,11.5,-,N/A,,Clear,30,2014-01-21 18:34:00
1:55 PM,11.7,-6.9,43,30.17,10.0,NE,9.2,18.4,N/A,,Clear,40,2014-01-21 18:55:00
2:15 PM,11.8,-6.3,44,30.17,10.0,NNE,11.5,16.1,N/A,,Clear,30,2014-01-21 19:15:00
2:35 PM,12.2,-6.0,44,30.17,10.0,NNE,10.4,16.1,N/A,,Clear,20,2014-01-21 19:35:00
2:55 PM,12.0,-6.2,44,30.17,10.0,NNE,9.2,-,N/A,,Clear,20,2014-01-21 19:55:00
3:14 PM,12.2,-6.0,44,30.17,10.0,NNE,5.8,-,N/A,,Clear,20,2014-01-21 20:14:00
3:35 PM,12.2,-6.0,44,30.17,10.0,North,6.9,-,N/A,,Clear,10,2014-01-21 20:35:00
3:54 PM,12.2,-6.3,43,30.17,10.0,North,3.5,-,N/A,,Clear,360,2014-01-21 20:54:00
4:15 PM,12.6,-6.3,43,30.17,10.0,North,5.8,-,N/A,,Clear,360,2014-01-21 21:15:00
4:35 PM,12.7,-6.3,42,30.18,10.0,NNW,9.2,-,N/A,,Clear,340,2014-01-21 21:35:00
4:54 PM,12.2,-7.1,42,30.18,10.0,North,5.8,-,N/A,,Clear,350,2014-01-21 21:54:00
5:15 PM,11.7,-6.7,44,30.19,10.0,North,4.6,-,N/A,,Mostly Cloudy,360,2014-01-21 22:15:00
5:35 PM,10.0,-5.6,49,30.19,10.0,North,4.6,-,N/A,,Overcast,10,2014-01-21 22:35:00
5:54 PM,10.2,-5.3,50,30.19,10.0,Calm,Calm,-,N/A,,Overcast,0,2014-01-21 22:54:00
6:15 PM,10.4,-3.8,53,30.20,10.0,Calm,Calm,-,N/A,,Overcast,0,2014-01-21 23:15:00
6:34 PM,10.8,-4.5,50,30.19,10.0,Calm,Calm,-,N/A,,Overcast,0,2014-01-21 23:34:00
6:55 PM,10.8,-4.2,51,30.19,10.0,Calm,Calm,-,N/A,,Overcast,0,2014-01-21 23:55:00
7:15 PM,10.4,-4.2,52,30.19,10.0,Calm,Calm,-,N/A,,Overcast,0,2014-01-22 00:15:00
7:34 PM,12.0,-4.4,48,30.19,10.0,Calm,Calm,-,N/A,,Overcast,0,2014-01-22 00:34:00
7:55 PM,10.4,-4.9,50,30.18,10.0,Calm,Calm,-,N/A,,Overcast,0,2014-01-22 00:55:00
8:15 PM,10.8,-3.3,53,30.19,10.0,Calm,Calm,-,N/A,,Overcast,0,2014-01-22 01:15:00
8:34 PM,8.6,-0.6,66,30.18,10.0,Calm,Calm,-,N/A,,Overcast,0,2014-01-22 01:34:00
8:55 PM,9.0,-0.2,66,30.18,10.0,Calm,Calm,-,N/A,,Overcast,0,2014-01-22 01:55:00
9:15 PM,8.6,-4.2,56,30.17,10.0,SE,4.6,-,N/A,,Overcast,130,2014-01-22 02:15:00
9:35 PM,7.9,-5.3,55,30.17,10.0,SE,4.6,-,N/A,,Overcast,140,2014-01-22 02:35:00
9:55 PM,7.7,-5.4,55,30.17,10.0,SE,4.6,-,N/A,,Overcast,140,2014-01-22 02:55:00
10:14 PM,7.5,-5.8,55,30.18,10.0,SSE,3.5,-,N/A,,Overcast,160,2014-01-22 03:14:00
10:35 PM,7.5,-5.8,55,30.17,10.0,South,3.5,-,N/A,,Overcast,170,2014-01-22 03:35:00
10:55 PM,7.3,-5.1,57,30.17,10.0,SSW,4.6,-,N/A,,Overcast,210,2014-01-22 03:55:00
11:14 PM,7.5,-4.7,57,30.17,10.0,SSW,4.6,-,N/A,,Overcast,200,2014-01-22 04:14:00
11:35 PM,7.5,-4.0,59,30.17,10.0,South,4.6,-,N/A,,Overcast,180,2014-01-22 04:35:00
11:55 PM,7.7,-4.5,57,30.17,10.0,South,5.8,-,N/A,,Overcast,190,2014-01-22 04:55:00